Energy Center, Louisiana
Current Conditions -  °F | °C
As of 6:53 AM on Tuesday 21 Oct 2014 (Local Time) from KLFT Reporting Station
Clear Clear  
Wind Chill: 54°   Ceiling: Unl
Heat Index: 54°   Visibility: 10mi
Dew Point: 53°   Wind: 5mph
Humidity: 97%   Direction: 20°NNE
Pressure: 30.04"   Gusts: NA
Location:  30.2247°N, 92.0198°W
Report Text: KLFT 211153Z 02004KT 10SM CLR 12/12 A3004 RMK AO2 SLP172 T01220117 10156 20122 51013
Loading
Personal Weather Stations






























Interactive Weather Map New forecast layout! Learn more

10-Day Weather Forecast

Advertisements
Track Severe Weather on mobile